Parc Parque, Puerto Rico
Current Conditions -  °F | °C
As of 9:56 AM on Tuesday 21 Oct 2014 (Local Time) from TJSJ Reporting Station
Scattered Clouds Scattered Clouds  
Wind Chill: 87°   Ceiling: Unl
Heat Index: 95°   Visibility: 10mi
Dew Point: 74°   Wind: 10mph
Humidity: 65%   Direction: 60°ENE
Pressure: 29.98"   Gusts: NA
Location:  18.2501°N, 66.1032°W
Report Text: TJSJ 211356Z 06009KT 10SM FEW030 SCT065 31/23 A2998 RMK AO2 SLP151 T03060233
Loading
Personal Weather Stations






























Interactive Weather Map
Tropical Storm Tracking
New forecast layout! Learn more

10-Day Weather Forecast

Advertisements
Track Severe Weather on mobile